createdAt,value
2022-09-28T00:01:23.099Z,9.00
2022-09-28T00:03:54.294Z,9.01
2022-09-28T00:06:26.463Z,9.00
2022-09-28T00:08:53.858Z,9.01
2022-09-28T00:11:22.885Z,9.00
2022-09-28T00:13:56.605Z,8.99
2022-09-28T00:16:35.470Z,8.98
2022-09-28T00:19:04.802Z,8.98
2022-09-28T00:21:35.152Z,8.96
2022-09-28T00:24:18.917Z,8.94
2022-09-28T00:26:55.216Z,8.92
2022-09-28T00:29:35.525Z,8.91
2022-09-28T00:32:07.202Z,8.89
2022-09-28T00:34:42.405Z,8.87
2022-09-28T00:37:09.904Z,8.88
2022-09-28T00:39:38.681Z,8.89
2022-09-28T00:42:24.431Z,8.87
2022-09-28T00:44:56.030Z,8.88
2022-09-28T00:47:57.714Z,8.86
2022-09-28T00:50:33.731Z,8.88
2022-09-28T00:53:13.542Z,8.88
2022-09-28T00:55:50.148Z,8.88
2022-09-28T00:58:41.427Z,8.87
2022-09-28T01:01:08.551Z,8.89
2022-09-28T01:03:36.933Z,8.87
2022-09-28T01:06:06.527Z,8.85
2022-09-28T01:08:35.823Z,8.86
2022-09-28T01:11:03.652Z,8.85
2022-09-28T01:13:32.463Z,8.82
2022-09-28T01:16:24.470Z,8.81
2022-09-28T01:19:07.099Z,8.82
2022-09-28T01:22:09.703Z,8.80
2022-09-28T01:24:46.841Z,8.80
2022-09-28T01:27:34.140Z,8.81
2022-09-28T01:30:08.887Z,8.81
2022-09-28T01:33:06.643Z,8.80
2022-09-28T01:35:50.296Z,8.80
2022-09-28T01:38:28.451Z,8.82
2022-09-28T01:40:58.241Z,8.82
2022-09-28T01:43:31.492Z,8.83
2022-09-28T01:46:27.330Z,8.84
2022-09-28T01:49:03.616Z,8.85
2022-09-28T01:51:44.862Z,8.85
2022-09-28T01:54:26.942Z,8.86
2022-09-28T01:57:34.050Z,8.87
2022-09-28T02:00:12.974Z,8.91
2022-09-28T02:03:16.698Z,8.89
2022-09-28T02:05:54.492Z,8.93
2022-09-28T02:08:28.409Z,8.93
2022-09-28T02:11:14.263Z,8.94
2022-09-28T02:13:47.687Z,8.95
2022-09-28T02:16:41.239Z,8.96
2022-09-28T02:19:24.326Z,8.98
2022-09-28T02:22:13.326Z,8.99
2022-09-28T02:24:50.225Z,9.01
2022-09-28T02:27:36.605Z,9.01
2022-09-28T02:30:05.978Z,9.04
2022-09-28T02:32:40.098Z,9.04
2022-09-28T02:35:16.871Z,9.04
2022-09-28T02:37:45.941Z,9.07
2022-09-28T02:40:28.863Z,9.06
2022-09-28T02:43:32.630Z,9.07
2022-09-28T02:46:24.888Z,9.07
2022-09-28T02:49:21.775Z,9.09
2022-09-28T02:52:29.753Z,9.08
2022-09-28T02:55:17.666Z,9.10
2022-09-28T02:58:20.382Z,9.09
2022-09-28T03:01:06.973Z,9.11
2022-09-28T03:04:02.321Z,9.09
2022-09-28T03:06:40.166Z,9.12
2022-09-28T03:09:12.966Z,9.11
2022-09-28T03:11:50.538Z,9.12
2022-09-28T03:14:17.867Z,9.12
2022-09-28T03:16:52.537Z,9.12
2022-09-28T03:19:27.695Z,9.12
2022-09-28T03:21:55.577Z,9.12
2022-09-28T03:24:22.504Z,9.12
2022-09-28T03:26:50.100Z,9.13
2022-09-28T03:29:17.704Z,9.14
2022-09-28T03:31:47.882Z,9.13
2022-09-28T03:34:15.335Z,9.14
2022-09-28T03:36:42.949Z,9.14
2022-09-28T03:39:09.960Z,9.15
2022-09-28T03:41:38.217Z,9.15
2022-09-28T03:44:05.405Z,9.13
2022-09-28T03:46:33.494Z,9.12
2022-09-28T03:49:05.617Z,9.14
2022-09-28T03:51:32.644Z,9.13
2022-09-28T03:53:59.573Z,9.13
2022-09-28T03:56:26.989Z,9.13
2022-09-28T03:58:53.910Z,9.12
2022-09-28T04:01:20.965Z,9.13
2022-09-28T04:03:53.984Z,9.11
2022-09-28T04:06:21.387Z,9.12
2022-09-28T04:08:48.366Z,9.11
2022-09-28T04:11:15.383Z,9.12
2022-09-28T04:13:43.416Z,9.11
2022-09-28T04:16:15.742Z,9.11
2022-09-28T04:18:48.667Z,9.10
2022-09-28T04:21:50.991Z,9.09
2022-09-28T04:24:18.822Z,9.09
2022-09-28T04:26:46.094Z,9.08
2022-09-28T04:29:16.290Z,9.06
2022-09-28T04:31:55.582Z,9.05
2022-09-28T04:34:36.364Z,9.03
2022-09-28T04:37:05.409Z,9.04
2022-09-28T04:39:32.449Z,9.03
2022-09-28T04:41:59.923Z,9.02
2022-09-28T04:44:27.928Z,9.01
2022-09-28T04:47:05.177Z,8.99
2022-09-28T04:49:35.202Z,8.99
2022-09-28T04:52:07.082Z,8.97
2022-09-28T04:54:35.610Z,8.96
2022-09-28T04:57:03.698Z,8.95
2022-09-28T04:59:30.709Z,8.96
2022-09-28T05:01:57.851Z,8.94
2022-09-28T05:04:43.695Z,8.93
2022-09-28T05:07:35.772Z,8.93
2022-09-28T05:10:05.174Z,8.92
2022-09-28T05:12:32.985Z,8.91
2022-09-28T05:15:00.702Z,8.89
2022-09-28T05:17:27.925Z,8.89
2022-09-28T05:20:09.650Z,8.86
2022-09-28T05:22:36.618Z,8.84
2022-09-28T05:25:05.551Z,8.83
2022-09-28T05:27:46.202Z,8.81
2022-09-28T05:30:35.439Z,8.80
2022-09-28T05:33:27.150Z,8.77
2022-09-28T05:36:04.421Z,8.77
2022-09-28T05:38:31.656Z,8.75
2022-09-28T05:41:01.159Z,8.74
2022-09-28T05:43:30.638Z,8.73
2022-09-28T05:45:59.908Z,8.71
2022-09-28T05:48:28.191Z,8.72
2022-09-28T05:50:55.559Z,8.72
2022-09-28T05:53:22.628Z,8.71
2022-09-28T05:55:49.755Z,8.72
2022-09-28T05:58:17.307Z,8.73
2022-09-28T06:00:44.315Z,8.73
2022-09-28T06:03:13.783Z,8.73
2022-09-28T06:05:41.491Z,8.74
2022-09-28T06:08:10.705Z,8.74
2022-09-28T06:10:40.235Z,8.75
2022-09-28T06:13:08.433Z,8.76
2022-09-28T06:15:36.721Z,8.76
2022-09-28T06:18:09.467Z,8.77
2022-09-28T06:20:42.996Z,8.78
2022-09-28T06:23:27.543Z,8.78
2022-09-28T06:25:55.160Z,8.78
2022-09-28T06:28:22.167Z,8.79
2022-09-28T06:30:49.266Z,8.81
2022-09-28T06:33:18.726Z,8.81
2022-09-28T06:35:46.158Z,8.84
2022-09-28T06:38:13.156Z,8.86
2022-09-28T06:40:40.277Z,8.88
2022-09-28T06:43:12.123Z,8.88
2022-09-28T06:45:57.454Z,8.88
2022-09-28T06:48:39.645Z,8.90
2022-09-28T06:51:08.914Z,8.92
2022-09-28T06:53:53.902Z,8.94
2022-09-28T06:56:33.107Z,8.96
2022-09-28T06:59:00.299Z,8.99
2022-09-28T07:01:28.610Z,9.01
2022-09-28T07:04:03.809Z,9.04
2022-09-28T07:06:50.491Z,9.05
2022-09-28T07:09:42.688Z,9.07
2022-09-28T07:12:32.152Z,9.09
2022-09-28T07:15:04.982Z,9.10
2022-09-28T07:17:39.630Z,9.13
2022-09-28T07:20:18.789Z,9.16
2022-09-28T07:23:02.622Z,9.18
2022-09-28T07:25:37.213Z,9.22
2022-09-28T07:28:20.306Z,9.26
2022-09-28T07:31:06.521Z,9.31
2022-09-28T07:33:59.620Z,9.36
2022-09-28T07:36:36.294Z,9.39
2022-09-28T07:39:03.867Z,9.40
2022-09-28T07:41:34.085Z,9.43
2022-09-28T07:44:07.019Z,9.46
2022-09-28T07:46:36.970Z,9.51
2022-09-28T07:49:28.266Z,9.58
2022-09-28T07:52:13.867Z,9.65
2022-09-28T07:55:07.040Z,9.70
2022-09-28T07:58:02.437Z,9.77
2022-09-28T08:00:49.707Z,9.82
2022-09-28T08:03:18.381Z,9.87
2022-09-28T08:05:47.368Z,9.89
2022-09-28T08:08:15.424Z,9.90
2022-09-28T08:10:46.846Z,9.91
2022-09-28T08:13:42.269Z,9.93
2022-09-28T08:16:22.763Z,9.91
2022-09-28T08:19:08.342Z,9.92
2022-09-28T08:21:47.266Z,9.90
2022-09-28T08:24:16.812Z,9.91
2022-09-28T08:26:45.085Z,9.93
2022-09-28T08:29:15.229Z,9.95
2022-09-28T08:32:01.523Z,9.96
2022-09-28T08:34:36.988Z,9.96
2022-09-28T08:37:22.377Z,9.97
2022-09-28T08:40:24.590Z,9.96
2022-09-28T08:43:41.335Z,9.95
2022-09-28T08:46:29.331Z,9.97
2022-09-28T08:49:25.370Z,10.02
2022-09-28T08:52:23.361Z,10.10
2022-09-28T08:55:31.420Z,10.10
2022-09-28T08:58:16.759Z,10.07
2022-09-28T09:00:52.755Z,10.06
2022-09-28T09:03:31.617Z,10.07
2022-09-28T09:07:21.915Z,10.05
2022-09-28T09:10:19.831Z,10.02
2022-09-28T09:13:25.731Z,9.99
2022-09-28T09:16:17.489Z,10.00
2022-09-28T09:19:20.691Z,10.01
2022-09-28T09:22:53.109Z,9.98
2022-09-28T09:25:45.627Z,9.95
2022-09-28T09:29:03.471Z,9.95
2022-09-28T09:32:17.829Z,9.98
2022-09-28T09:35:16.055Z,9.98
2022-09-28T09:38:40.675Z,10.04
2022-09-28T09:42:01.692Z,10.06
2022-09-28T09:45:02.141Z,10.06
2022-09-28T09:48:00.456Z,10.05
2022-09-28T09:50:43.428Z,9.99
2022-09-28T09:53:36.103Z,9.96
2022-09-28T09:56:44.550Z,9.94
2022-09-28T09:59:26.049Z,9.95
2022-09-28T10:02:27.871Z,10.00
2022-09-28T10:05:12.721Z,10.03
2022-09-28T10:08:08.951Z,10.07
2022-09-28T10:10:49.402Z,10.15
2022-09-28T10:13:18.364Z,10.24
2022-09-28T10:15:47.786Z,10.29
2022-09-28T10:18:21.450Z,10.32
2022-09-28T10:21:07.061Z,10.34
2022-09-28T10:24:02.422Z,10.38
2022-09-28T10:26:42.003Z,10.37
2022-09-28T10:29:17.787Z,10.33
2022-09-28T10:31:48.928Z,10.31
2022-09-28T10:34:31.000Z,10.30
2022-09-28T10:37:10.955Z,10.34
2022-09-28T10:39:59.149Z,10.31
2022-09-28T10:42:33.481Z,10.34
2022-09-28T10:45:22.445Z,10.38
2022-09-28T10:47:50.343Z,10.38
2022-09-28T10:50:27.887Z,10.35
2022-09-28T10:53:20.417Z,10.35
2022-09-28T10:56:22.332Z,10.35
2022-09-28T10:58:56.080Z,10.41
2022-09-28T11:01:34.432Z,10.47
2022-09-28T11:04:07.334Z,10.53
2022-09-28T11:06:41.740Z,10.60
2022-09-28T11:09:31.040Z,10.77
2022-09-28T11:12:06.273Z,10.85
2022-09-28T11:14:42.182Z,10.91
2022-09-28T11:17:41.929Z,10.93
2022-09-28T11:20:28.491Z,10.94
2022-09-28T11:23:22.095Z,10.93
2022-09-28T11:26:02.319Z,10.94
2022-09-28T11:28:34.192Z,10.94
2022-09-28T11:31:08.056Z,10.92
2022-09-28T11:33:47.739Z,10.95
2022-09-28T11:37:15.258Z,11.06
2022-09-28T11:40:43.779Z,11.23
2022-09-28T11:43:51.614Z,11.36
2022-09-28T11:47:02.785Z,11.49
2022-09-28T11:49:38.899Z,11.54
2022-09-28T11:52:24.521Z,11.59
2022-09-28T11:55:12.260Z,11.58
2022-09-28T11:57:46.363Z,11.60
2022-09-28T12:00:19.423Z,11.69
2022-09-28T12:03:09.251Z,11.80
2022-09-28T12:05:56.562Z,11.86
2022-09-28T12:08:30.112Z,12.02
2022-09-28T12:11:09.739Z,12.07
2022-09-28T12:14:03.807Z,12.11
2022-09-28T12:19:55.383Z,12.17
2022-09-28T12:22:41.887Z,12.09
2022-09-28T12:25:16.593Z,12.09
2022-09-28T12:28:08.374Z,12.14
2022-09-28T12:30:40.710Z,12.11
2022-09-28T12:33:13.074Z,12.06
2022-09-28T12:36:33.411Z,12.08
2022-09-28T12:39:46.943Z,12.02
2022-09-28T12:42:46.088Z,11.99
2022-09-28T12:46:17.985Z,12.06
2022-09-28T12:50:07.231Z,12.17
2022-09-28T12:53:07.549Z,12.32
2022-09-28T12:56:11.709Z,12.43
2022-09-28T12:59:00.934Z,12.51
2022-09-28T13:02:20.979Z,12.56
2022-09-28T13:05:30.865Z,12.59
2022-09-28T13:08:53.139Z,12.62
2022-09-28T13:11:36.038Z,12.53
2022-09-28T13:14:37.812Z,12.48
2022-09-28T13:17:40.352Z,12.47
2022-09-28T13:20:17.430Z,12.44
2022-09-28T13:23:05.547Z,12.42
2022-09-28T13:25:36.324Z,12.39
2022-09-28T13:28:05.323Z,12.48
2022-09-28T13:30:38.675Z,12.46
2022-09-28T13:33:10.340Z,12.51
2022-09-28T13:35:43.902Z,12.61
2022-09-28T13:38:17.380Z,12.75
2022-09-28T13:41:06.398Z,12.87
2022-09-28T13:44:13.301Z,13.03
2022-09-28T13:47:21.095Z,13.02
2022-09-28T13:50:03.475Z,13.02
2022-09-28T13:52:44.935Z,13.11
2022-09-28T13:55:43.666Z,13.26
2022-09-28T13:58:47.624Z,13.45
2022-09-28T14:01:23.217Z,13.53
2022-09-28T14:04:12.987Z,13.70
2022-09-28T14:06:56.966Z,13.76
2022-09-28T14:09:42.113Z,13.75
2022-09-28T14:12:33.112Z,13.80
2022-09-28T14:15:00.509Z,13.80
2022-09-28T14:17:27.375Z,13.69
2022-09-28T14:20:25.300Z,13.68
2022-09-28T14:23:05.340Z,13.59
2022-09-28T14:25:35.954Z,13.52
2022-09-28T14:29:05.245Z,13.58
2022-09-28T14:31:43.154Z,13.51
2022-09-28T14:34:44.887Z,13.52
2022-09-28T14:37:56.014Z,13.51
2022-09-28T14:41:11.064Z,13.54
2022-09-28T14:44:14.262Z,13.46
2022-09-28T14:46:46.644Z,13.38
2022-09-28T14:49:20.020Z,13.34
2022-09-28T14:51:52.985Z,13.31
2022-09-28T14:54:21.193Z,13.30
2022-09-28T14:56:54.890Z,13.32
2022-09-28T14:59:35.716Z,13.31
2022-09-28T15:02:12.307Z,13.36
2022-09-28T15:04:56.695Z,13.33
2022-09-28T15:07:47.847Z,13.35
2022-09-28T15:11:00.750Z,13.39
2022-09-28T15:13:28.847Z,13.39
2022-09-28T15:16:17.410Z,13.47
2022-09-28T15:19:34.335Z,13.44
2022-09-28T15:22:01.607Z,13.41
2022-09-28T15:24:31.513Z,13.34
2022-09-28T15:27:00.598Z,13.34
2022-09-28T15:29:34.035Z,13.31
2022-09-28T15:32:01.193Z,13.27
2022-09-28T15:34:54.547Z,13.27
2022-09-28T15:37:38.446Z,13.24
2022-09-28T15:40:16.623Z,13.19
2022-09-28T15:42:45.243Z,13.13
2022-09-28T15:45:26.402Z,13.11
2022-09-28T15:48:15.235Z,13.06
2022-09-28T15:50:58.165Z,13.05
2022-09-28T15:53:26.011Z,12.99
2022-09-28T15:55:54.690Z,12.98
2022-09-28T15:58:22.798Z,12.95
2022-09-28T16:01:12.085Z,12.92
2022-09-28T16:03:39.299Z,12.92
2022-09-28T16:06:10.577Z,12.89
2022-09-28T16:08:46.184Z,12.86
2022-09-28T16:11:30.156Z,12.82
2022-09-28T16:14:23.859Z,12.82
2022-09-28T16:16:52.447Z,12.77
2022-09-28T16:19:31.925Z,12.74
2022-09-28T16:22:02.093Z,12.70
2022-09-28T16:24:35.381Z,12.63
2022-09-28T16:27:22.999Z,12.56
2022-09-28T16:30:32.360Z,12.50
2022-09-28T16:33:05.645Z,12.43
2022-09-28T16:35:50.867Z,12.38
2022-09-28T16:38:19.870Z,12.34
2022-09-28T16:40:51.261Z,12.26
2022-09-28T16:43:32.549Z,12.23
2022-09-28T16:46:09.690Z,12.18
2022-09-28T16:48:48.486Z,12.12
2022-09-28T16:51:20.170Z,12.06
2022-09-28T16:54:06.471Z,12.02
2022-09-28T16:56:36.040Z,11.97
2022-09-28T16:59:04.375Z,11.93
2022-09-28T17:01:31.710Z,11.90
2022-09-28T17:03:58.765Z,11.85
2022-09-28T17:06:26.862Z,11.83
2022-09-28T17:08:58.631Z,11.78
2022-09-28T17:11:25.822Z,11.74
2022-09-28T17:13:58.889Z,11.72
2022-09-28T17:19:21.523Z,11.66
2022-09-28T17:21:49.872Z,11.62
2022-09-28T17:24:18.294Z,11.59
2022-09-28T17:26:49.131Z,11.57
2022-09-28T17:29:16.154Z,11.55
2022-09-28T17:31:44.694Z,11.50
2022-09-28T17:34:15.139Z,11.46
2022-09-28T17:36:43.488Z,11.43
2022-09-28T17:39:16.784Z,11.42
2022-09-28T17:41:44.078Z,11.39
2022-09-28T17:44:12.183Z,11.37
2022-09-28T17:46:47.271Z,11.35
2022-09-28T17:49:14.858Z,11.32
2022-09-28T17:51:41.885Z,11.30
2022-09-28T17:54:09.126Z,11.27
2022-09-28T17:56:36.939Z,11.25
2022-09-28T17:59:09.992Z,11.23
2022-09-28T18:01:39.656Z,11.19
2022-09-28T18:04:09.433Z,11.16
2022-09-28T18:06:39.719Z,11.13
2022-09-28T18:09:08.561Z,11.10
2022-09-28T18:11:42.226Z,11.07
2022-09-28T18:14:11.231Z,11.04
2022-09-28T18:16:38.680Z,11.01
2022-09-28T18:19:05.935Z,10.99
2022-09-28T18:21:32.980Z,10.96
2022-09-28T18:24:00.050Z,10.93
2022-09-28T18:26:27.034Z,10.89
2022-09-28T18:28:55.129Z,10.86
2022-09-28T18:31:22.608Z,10.81
2022-09-28T18:33:49.872Z,10.77
2022-09-28T18:36:16.928Z,10.74
2022-09-28T18:38:43.921Z,10.70
2022-09-28T18:41:16.152Z,10.67
2022-09-28T18:43:49.053Z,10.63
2022-09-28T18:46:18.259Z,10.59
2022-09-28T18:48:47.317Z,10.55
2022-09-28T18:51:14.506Z,10.51
2022-09-28T18:53:41.469Z,10.47
2022-09-28T18:56:14.705Z,10.44
2022-09-28T18:58:42.437Z,10.41
2022-09-28T19:01:29.502Z,10.39
2022-09-28T19:04:11.308Z,10.35
2022-09-28T19:06:41.464Z,10.32
2022-09-28T19:09:09.284Z,10.29
2022-09-28T19:11:36.473Z,10.26
2022-09-28T19:14:03.603Z,10.24
2022-09-28T19:16:33.942Z,10.21
2022-09-28T19:19:02.629Z,10.17
2022-09-28T19:21:30.796Z,10.16
2022-09-28T19:24:02.255Z,10.13
2022-09-28T19:26:29.961Z,10.10
2022-09-28T19:28:58.266Z,10.08
2022-09-28T19:31:26.577Z,10.05
2022-09-28T19:33:53.608Z,10.02
2022-09-28T19:36:24.291Z,9.98
2022-09-28T19:38:53.206Z,9.96
2022-09-28T19:41:44.169Z,9.94
2022-09-28T19:44:27.649Z,9.89
2022-09-28T19:47:06.945Z,9.88
2022-09-28T19:49:37.423Z,9.86
2022-09-28T19:52:13.275Z,9.82
2022-09-28T19:55:00.164Z,9.79
2022-09-28T19:57:32.463Z,9.77
2022-09-28T20:00:03.177Z,9.75
2022-09-28T20:02:34.959Z,9.73
2022-09-28T20:05:02.282Z,9.72
2022-09-28T20:07:32.983Z,9.69
2022-09-28T20:10:00.364Z,9.70
2022-09-28T20:12:27.446Z,9.67
2022-09-28T20:14:54.528Z,9.70
2022-09-28T20:17:21.817Z,9.71
2022-09-28T20:19:51.012Z,9.71
2022-09-28T20:22:18.598Z,9.72
2022-09-28T20:24:45.541Z,9.74
2022-09-28T20:27:12.543Z,9.76
2022-09-28T20:29:39.495Z,9.77
2022-09-28T20:32:06.490Z,9.78
2022-09-28T20:34:34.039Z,9.79
2022-09-28T20:37:01.476Z,9.80
2022-09-28T20:39:28.625Z,9.79
2022-09-28T20:41:57.613Z,9.81
2022-09-28T20:44:24.787Z,9.80
2022-09-28T20:46:52.087Z,9.82
2022-09-28T20:49:19.154Z,9.81
2022-09-28T20:51:46.194Z,9.82
2022-09-28T20:54:13.161Z,9.82
2022-09-28T20:56:40.177Z,9.82
2022-09-28T20:59:10.198Z,9.85
2022-09-28T21:01:37.569Z,9.84
2022-09-28T21:04:08.219Z,9.84
2022-09-28T21:06:38.907Z,9.85
2022-09-28T21:09:08.425Z,9.83
2022-09-28T21:11:35.980Z,9.84
2022-09-28T21:14:06.207Z,9.85
2022-09-28T21:16:35.036Z,9.83
2022-09-28T21:19:02.321Z,9.83
2022-09-28T21:21:29.929Z,9.82
2022-09-28T21:23:58.240Z,9.82
2022-09-28T21:26:29.707Z,9.80
2022-09-28T21:29:01.610Z,9.79
2022-09-28T21:31:38.800Z,9.78
2022-09-28T21:34:06.594Z,9.80
2022-09-28T21:36:34.263Z,9.79
2022-09-28T21:39:01.245Z,9.78
2022-09-28T21:41:29.062Z,9.76
2022-09-28T21:43:56.099Z,9.76
2022-09-28T21:46:23.118Z,9.76
2022-09-28T21:48:53.729Z,9.74
2022-09-28T21:51:21.461Z,9.74
2022-09-28T21:53:49.212Z,9.73
2022-09-28T21:56:16.170Z,9.72
2022-09-28T21:58:43.152Z,9.72
2022-09-28T22:01:23.406Z,9.68
2022-09-28T22:03:54.212Z,9.67
2022-09-28T22:06:24.715Z,9.65
2022-09-28T22:08:51.912Z,9.65
2022-09-28T22:11:25.418Z,9.63
2022-09-28T22:13:56.263Z,9.61
2022-09-28T22:16:26.747Z,9.59
2022-09-28T22:18:53.814Z,9.58
2022-09-28T22:21:30.289Z,9.54
2022-09-28T22:24:03.151Z,9.55
2022-09-28T22:26:33.522Z,9.54
2022-09-28T22:29:07.072Z,9.53
2022-09-28T22:31:37.704Z,9.52
2022-09-28T22:34:06.200Z,9.51
2022-09-28T22:36:33.527Z,9.50
2022-09-28T22:39:00.573Z,9.49
2022-09-28T22:41:28.287Z,9.47
2022-09-28T22:43:55.367Z,9.45
2022-09-28T22:46:26.204Z,9.44
2022-09-28T22:48:56.399Z,9.42
2022-09-28T22:51:26.772Z,9.41
2022-09-28T22:53:53.845Z,9.38
2022-09-28T22:56:20.867Z,9.36
2022-09-28T22:58:48.285Z,9.35
2022-09-28T23:01:28.264Z,9.31
2022-09-28T23:03:57.298Z,9.30
2022-09-28T23:06:28.116Z,9.28
2022-09-28T23:08:55.088Z,9.26
2022-09-28T23:11:22.516Z,9.23
2022-09-28T23:13:51.593Z,9.20
2022-09-28T23:16:19.672Z,9.18
2022-09-28T23:18:46.858Z,9.16
2022-09-28T23:21:17.739Z,9.13
2022-09-28T23:23:46.716Z,9.11
2022-09-28T23:26:22.359Z,9.07
2022-09-28T23:28:49.332Z,9.06
2022-09-28T23:31:23.828Z,9.02
2022-09-28T23:33:51.300Z,9.00
2022-09-28T23:36:18.397Z,8.98
2022-09-28T23:38:45.430Z,8.95
2022-09-28T23:41:12.445Z,8.92
2022-09-28T23:43:39.447Z,8.90
2022-09-28T23:46:06.985Z,8.87
2022-09-28T23:48:34.364Z,8.85
2022-09-28T23:51:01.854Z,8.82
2022-09-28T23:53:29.569Z,8.79
2022-09-28T23:55:56.552Z,8.76
2022-09-28T23:58:25.642Z,8.73
